Metar Aviation Weather Data ENHD Haugesund

7°C Temp
6°C Dewpoint
93% Humidity
Temperature
23 KM/H
14 MPH
12 KTS
170°
Due South

Wind Speed
Overcast
Conditions
Pressure 1008.92 (hPa) - 29.79 (in)
Visibility 3.7 (mi) - 6 (km)

Current Conditions
ENHD
Haugesund
Metar :ENHD 202050Z 17012KT 6000 -DZ OVC004 07/06 Q1009
Wed 20th February 22:50 pm

Haugesund
  Metar Aviation API Data Provided by https://www.checkwx.com/ PHP scripts by weather34.com ©2019